sensor_id;sensor_type;location;lat;lon;timestamp;temperature;humidity
35645;DHT22;21764;52.042;6.830;2022-08-19T00:02:14;18.00;99.90
35645;DHT22;21764;52.042;6.830;2022-08-19T00:07:14;17.90;99.90
35645;DHT22;21764;52.042;6.830;2022-08-19T00:12:15;17.80;99.90
35645;DHT22;21764;52.042;6.830;2022-08-19T00:17:16;17.80;99.90
35645;DHT22;21764;52.042;6.830;2022-08-19T00:22:17;17.70;99.90
35645;DHT22;21764;52.042;6.830;2022-08-19T00:27:18;17.70;99.90
35645;DHT22;21764;52.042;6.830;2022-08-19T00:32:19;17.50;99.90
35645;DHT22;21764;52.042;6.830;2022-08-19T00:37:24;17.40;99.90
35645;DHT22;21764;52.042;6.830;2022-08-19T00:42:26;17.20;99.90
35645;DHT22;21764;52.042;6.830;2022-08-19T00:47:28;17.10;99.90
35645;DHT22;21764;52.042;6.830;2022-08-19T00:52:36;17.00;99.90
35645;DHT22;21764;52.042;6.830;2022-08-19T00:57:39;17.00;99.90
35645;DHT22;21764;52.042;6.830;2022-08-19T01:02:42;17.10;99.90
35645;DHT22;21764;52.042;6.830;2022-08-19T01:07:43;17.00;99.90
35645;DHT22;21764;52.042;6.830;2022-08-19T01:12:45;17.00;99.90
35645;DHT22;21764;52.042;6.830;2022-08-19T01:17:46;16.90;99.90
35645;DHT22;21764;52.042;6.830;2022-08-19T01:22:50;16.90;99.90
35645;DHT22;21764;52.042;6.830;2022-08-19T01:27:52;16.80;99.90
35645;DHT22;21764;52.042;6.830;2022-08-19T01:32:55;16.70;99.90
35645;DHT22;21764;52.042;6.830;2022-08-19T01:38:02;16.70;99.90
35645;DHT22;21764;52.042;6.830;2022-08-19T01:43:03;16.70;99.90
35645;DHT22;21764;52.042;6.830;2022-08-19T01:48:04;16.60;99.90
35645;DHT22;21764;52.042;6.830;2022-08-19T01:53:09;16.60;99.90
35645;DHT22;21764;52.042;6.830;2022-08-19T01:58:13;16.60;99.90
35645;DHT22;21764;52.042;6.830;2022-08-19T02:03:15;16.60;99.90
35645;DHT22;21764;52.042;6.830;2022-08-19T02:08:16;16.60;99.90
35645;DHT22;21764;52.042;6.830;2022-08-19T02:13:17;16.40;99.90
35645;DHT22;21764;52.042;6.830;2022-08-19T02:18:18;16.50;99.90
35645;DHT22;21764;52.042;6.830;2022-08-19T02:23:18;16.50;99.90
35645;DHT22;21764;52.042;6.830;2022-08-19T02:28:19;16.40;99.90
35645;DHT22;21764;52.042;6.830;2022-08-19T02:33:20;16.40;99.90
35645;DHT22;21764;52.042;6.830;2022-08-19T02:38:20;16.50;99.90
35645;DHT22;21764;52.042;6.830;2022-08-19T02:43:29;16.30;99.90
35645;DHT22;21764;52.042;6.830;2022-08-19T02:48:29;16.20;99.90
35645;DHT22;21764;52.042;6.830;2022-08-19T02:53:33;16.20;99.90
35645;DHT22;21764;52.042;6.830;2022-08-19T02:58:33;16.20;99.90
35645;DHT22;21764;52.042;6.830;2022-08-19T03:03:34;16.20;99.90
35645;DHT22;21764;52.042;6.830;2022-08-19T03:08:36;16.10;99.90
35645;DHT22;21764;52.042;6.830;2022-08-19T03:13:37;16.20;99.90
35645;DHT22;21764;52.042;6.830;2022-08-19T03:18:38;16.30;99.90
35645;DHT22;21764;52.042;6.830;2022-08-19T03:23:39;16.30;99.90
35645;DHT22;21764;52.042;6.830;2022-08-19T03:28:40;16.50;99.90
35645;DHT22;21764;52.042;6.830;2022-08-19T03:33:41;16.70;99.90
35645;DHT22;21764;52.042;6.830;2022-08-19T03:38:47;16.90;99.90
35645;DHT22;21764;52.042;6.830;2022-08-19T03:43:48;16.80;99.90
35645;DHT22;21764;52.042;6.830;2022-08-19T03:48:51;16.70;99.90
35645;DHT22;21764;52.042;6.830;2022-08-19T03:53:56;16.70;99.90
35645;DHT22;21764;52.042;6.830;2022-08-19T03:58:58;16.60;99.90
35645;DHT22;21764;52.042;6.830;2022-08-19T04:04:00;16.50;99.90
35645;DHT22;21764;52.042;6.830;2022-08-19T04:09:04;16.40;99.90
35645;DHT22;21764;52.042;6.830;2022-08-19T04:14:05;16.30;99.90
35645;DHT22;21764;52.042;6.830;2022-08-19T04:19:06;16.30;99.90
35645;DHT22;21764;52.042;6.830;2022-08-19T04:24:12;16.20;99.90
35645;DHT22;21764;52.042;6.830;2022-08-19T04:29:16;16.20;99.90
35645;DHT22;21764;52.042;6.830;2022-08-19T04:34:20;16.20;99.90
35645;DHT22;21764;52.042;6.830;2022-08-19T04:39:28;16.30;99.90
35645;DHT22;21764;52.042;6.830;2022-08-19T04:44:47;16.40;99.90
35645;DHT22;21764;52.042;6.830;2022-08-19T04:49:48;16.50;99.90
35645;DHT22;21764;52.042;6.830;2022-08-19T04:54:49;16.50;99.90
35645;DHT22;21764;52.042;6.830;2022-08-19T04:59:54;16.70;99.90
35645;DHT22;21764;52.042;6.830;2022-08-19T05:04:58;16.80;99.90
35645;DHT22;21764;52.042;6.830;2022-08-19T05:10:01;17.50;99.90
35645;DHT22;21764;52.042;6.830;2022-08-19T05:15:03;17.70;99.90
35645;DHT22;21764;52.042;6.830;2022-08-19T05:20:05;19.10;99.90
35645;DHT22;21764;52.042;6.830;2022-08-19T05:25:25;21.50;99.90
35645;DHT22;21764;52.042;6.830;2022-08-19T05:30:26;22.90;99.90
35645;DHT22;21764;52.042;6.830;2022-08-19T05:35:26;22.70;99.90
35645;DHT22;21764;52.042;6.830;2022-08-19T05:40:29;22.10;99.90
35645;DHT22;21764;52.042;6.830;2022-08-19T05:45:29;22.50;99.90
35645;DHT22;21764;52.042;6.830;2022-08-19T05:50:30;25.40;99.90
35645;DHT22;21764;52.042;6.830;2022-08-19T05:55:31;26.60;99.90
35645;DHT22;21764;52.042;6.830;2022-08-19T06:00:32;27.40;99.90
35645;DHT22;21764;52.042;6.830;2022-08-19T06:05:33;27.70;99.90
35645;DHT22;21764;52.042;6.830;2022-08-19T06:10:34;28.50;99.90
35645;DHT22;21764;52.042;6.830;2022-08-19T06:15:37;28.70;99.90
35645;DHT22;21764;52.042;6.830;2022-08-19T06:20:37;27.50;99.90
35645;DHT22;21764;52.042;6.830;2022-08-19T06:25:39;29.00;99.90
35645;DHT22;21764;52.042;6.830;2022-08-19T06:30:40;26.20;99.90
35645;DHT22;21764;52.042;6.830;2022-08-19T06:35:41;28.00;99.90
35645;DHT22;21764;52.042;6.830;2022-08-19T06:40:42;28.10;99.90
35645;DHT22;21764;52.042;6.830;2022-08-19T06:45:43;27.30;99.90
35645;DHT22;21764;52.042;6.830;2022-08-19T06:50:43;29.30;99.90
35645;DHT22;21764;52.042;6.830;2022-08-19T06:55:45;27.90;99.90
35645;DHT22;21764;52.042;6.830;2022-08-19T07:00:46;28.30;99.90
35645;DHT22;21764;52.042;6.830;2022-08-19T07:05:47;33.40;95.90
35645;DHT22;21764;52.042;6.830;2022-08-19T07:10:47;34.30;91.50
35645;DHT22;21764;52.042;6.830;2022-08-19T07:15:49;37.50;78.00
35645;DHT22;21764;52.042;6.830;2022-08-19T07:20:50;35.10;76.60
35645;DHT22;21764;52.042;6.830;2022-08-19T07:25:51;34.90;77.90
35645;DHT22;21764;52.042;6.830;2022-08-19T07:30:52;35.60;77.70
35645;DHT22;21764;52.042;6.830;2022-08-19T07:35:53;38.80;68.40
35645;DHT22;21764;52.042;6.830;2022-08-19T07:40:54;39.50;62.80
35645;DHT22;21764;52.042;6.830;2022-08-19T07:45:55;37.60;63.10
35645;DHT22;21764;52.042;6.830;2022-08-19T07:51:00;40.00;61.80
35645;DHT22;21764;52.042;6.830;2022-08-19T07:56:05;39.90;59.10
35645;DHT22;21764;52.042;6.830;2022-08-19T08:01:07;40.50;58.00
35645;DHT22;21764;52.042;6.830;2022-08-19T08:06:08;39.80;58.10
35645;DHT22;21764;52.042;6.830;2022-08-19T08:11:27;43.60;53.70
35645;DHT22;21764;52.042;6.830;2022-08-19T08:16:29;45.40;49.60
35645;DHT22;21764;52.042;6.830;2022-08-19T08:21:32;45.30;48.30
35645;DHT22;21764;52.042;6.830;2022-08-19T08:26:33;45.70;47.00
35645;DHT22;21764;52.042;6.830;2022-08-19T08:31:34;41.70;49.90
35645;DHT22;21764;52.042;6.830;2022-08-19T08:36:39;44.00;48.00
35645;DHT22;21764;52.042;6.830;2022-08-19T08:47:10;43.20;49.20
35645;DHT22;21764;52.042;6.830;2022-08-19T08:52:19;43.10;48.30
35645;DHT22;21764;52.042;6.830;2022-08-19T08:57:28;44.10;46.90
35645;DHT22;21764;52.042;6.830;2022-08-19T09:02:29;44.40;46.70
35645;DHT22;21764;52.042;6.830;2022-08-19T09:07:49;43.70;47.00
35645;DHT22;21764;52.042;6.830;2022-08-19T09:18:20;46.20;43.20
35645;DHT22;21764;52.042;6.830;2022-08-19T09:23:21;43.70;44.50
35645;DHT22;21764;52.042;6.830;2022-08-19T09:28:23;44.40;42.70
35645;DHT22;21764;52.042;6.830;2022-08-19T09:33:23;44.00;43.00
35645;DHT22;21764;52.042;6.830;2022-08-19T09:38:24;43.20;42.90
35645;DHT22;21764;52.042;6.830;2022-08-19T09:43:25;44.20;42.20
35645;DHT22;21764;52.042;6.830;2022-08-19T09:48:28;42.60;43.60
35645;DHT22;21764;52.042;6.830;2022-08-19T09:53:29;45.40;41.90
35645;DHT22;21764;52.042;6.830;2022-08-19T09:58:30;44.70;42.20
35645;DHT22;21764;52.042;6.830;2022-08-19T10:03:31;45.40;41.50
35645;DHT22;21764;52.042;6.830;2022-08-19T10:08:35;45.70;41.90
35645;DHT22;21764;52.042;6.830;2022-08-19T10:13:36;45.00;42.00
35645;DHT22;21764;52.042;6.830;2022-08-19T10:18:39;45.90;41.20
35645;DHT22;21764;52.042;6.830;2022-08-19T10:23:45;43.70;42.90
35645;DHT22;21764;52.042;6.830;2022-08-19T10:28:47;41.50;44.90
35645;DHT22;21764;52.042;6.830;2022-08-19T10:33:47;43.90;40.80
35645;DHT22;21764;52.042;6.830;2022-08-19T10:38:53;41.90;44.70
35645;DHT22;21764;52.042;6.830;2022-08-19T10:43:56;44.40;42.00
35645;DHT22;21764;52.042;6.830;2022-08-19T10:48:59;45.00;40.60
35645;DHT22;21764;52.042;6.830;2022-08-19T10:54:00;45.40;40.10
35645;DHT22;21764;52.042;6.830;2022-08-19T10:59:01;42.10;40.20
35645;DHT22;21764;52.042;6.830;2022-08-19T11:04:04;42.90;41.20
35645;DHT22;21764;52.042;6.830;2022-08-19T11:09:05;36.40;48.10
35645;DHT22;21764;52.042;6.830;2022-08-19T11:14:11;32.30;53.10
35645;DHT22;21764;52.042;6.830;2022-08-19T11:19:12;30.60;57.90
35645;DHT22;21764;52.042;6.830;2022-08-19T11:24:17;31.90;56.10
35645;DHT22;21764;52.042;6.830;2022-08-19T11:29:21;31.70;55.20
35645;DHT22;21764;52.042;6.830;2022-08-19T11:34:24;31.10;56.70
35645;DHT22;21764;52.042;6.830;2022-08-19T11:39:28;30.80;58.80
35645;DHT22;21764;52.042;6.830;2022-08-19T11:44:28;30.00;60.00
35645;DHT22;21764;52.042;6.830;2022-08-19T11:49:30;30.00;57.50
35645;DHT22;21764;52.042;6.830;2022-08-19T11:54:31;30.00;60.10
35645;DHT22;21764;52.042;6.830;2022-08-19T11:59:32;30.30;58.30
35645;DHT22;21764;52.042;6.830;2022-08-19T12:04:33;30.20;58.50
35645;DHT22;21764;52.042;6.830;2022-08-19T12:09:34;29.90;58.20
35645;DHT22;21764;52.042;6.830;2022-08-19T12:14:35;30.00;56.90
35645;DHT22;21764;52.042;6.830;2022-08-19T12:19:37;30.20;57.80
35645;DHT22;21764;52.042;6.830;2022-08-19T12:24:37;30.00;59.00
35645;DHT22;21764;52.042;6.830;2022-08-19T12:29:38;30.00;58.90
35645;DHT22;21764;52.042;6.830;2022-08-19T12:34:39;29.80;58.90
35645;DHT22;21764;52.042;6.830;2022-08-19T12:39:41;30.10;60.00
35645;DHT22;21764;52.042;6.830;2022-08-19T12:44:43;29.90;58.40
35645;DHT22;21764;52.042;6.830;2022-08-19T12:49:44;29.80;59.20
35645;DHT22;21764;52.042;6.830;2022-08-19T12:54:46;29.80;60.30
35645;DHT22;21764;52.042;6.830;2022-08-19T12:59:47;29.60;59.50
35645;DHT22;21764;52.042;6.830;2022-08-19T13:04:53;29.40;61.60
35645;DHT22;21764;52.042;6.830;2022-08-19T13:09:54;29.50;61.40
35645;DHT22;21764;52.042;6.830;2022-08-19T13:14:55;29.60;61.80
35645;DHT22;21764;52.042;6.830;2022-08-19T13:19:55;29.50;61.80
35645;DHT22;21764;52.042;6.830;2022-08-19T13:24:56;29.70;62.40
35645;DHT22;21764;52.042;6.830;2022-08-19T13:29:57;30.10;61.60
35645;DHT22;21764;52.042;6.830;2022-08-19T13:35:17;30.20;61.30
35645;DHT22;21764;52.042;6.830;2022-08-19T13:40:19;30.40;61.70
35645;DHT22;21764;52.042;6.830;2022-08-19T13:45:24;30.30;62.40
35645;DHT22;21764;52.042;6.830;2022-08-19T13:50:29;30.20;62.60
35645;DHT22;21764;52.042;6.830;2022-08-19T13:55:31;29.90;63.70
35645;DHT22;21764;52.042;6.830;2022-08-19T14:00:36;29.60;62.80
35645;DHT22;21764;52.042;6.830;2022-08-19T14:05:37;29.70;62.60
35645;DHT22;21764;52.042;6.830;2022-08-19T14:10:38;29.60;62.90
35645;DHT22;21764;52.042;6.830;2022-08-19T14:15:39;29.40;62.40
35645;DHT22;21764;52.042;6.830;2022-08-19T14:20:40;29.30;60.90
35645;DHT22;21764;52.042;6.830;2022-08-19T14:25:41;28.90;61.80
35645;DHT22;21764;52.042;6.830;2022-08-19T14:30:42;28.90;59.50
35645;DHT22;21764;52.042;6.830;2022-08-19T14:35:44;28.90;60.10
35645;DHT22;21764;52.042;6.830;2022-08-19T14:40:45;28.80;59.20
35645;DHT22;21764;52.042;6.830;2022-08-19T14:45:46;28.80;60.00
35645;DHT22;21764;52.042;6.830;2022-08-19T14:50:46;28.60;59.70
35645;DHT22;21764;52.042;6.830;2022-08-19T14:55:47;28.70;58.80
35645;DHT22;21764;52.042;6.830;2022-08-19T15:00:48;28.60;61.20
35645;DHT22;21764;52.042;6.830;2022-08-19T15:05:48;28.80;59.30
35645;DHT22;21764;52.042;6.830;2022-08-19T15:10:49;28.80;59.60
35645;DHT22;21764;52.042;6.830;2022-08-19T15:15:50;28.80;59.10
35645;DHT22;21764;52.042;6.830;2022-08-19T15:20:52;28.80;61.70
35645;DHT22;21764;52.042;6.830;2022-08-19T15:25:52;28.90;60.00
35645;DHT22;21764;52.042;6.830;2022-08-19T15:30:55;28.80;62.40
35645;DHT22;21764;52.042;6.830;2022-08-19T15:35:55;28.90;62.30
35645;DHT22;21764;52.042;6.830;2022-08-19T15:40:57;29.00;62.00
35645;DHT22;21764;52.042;6.830;2022-08-19T15:46:19;29.40;61.60
35645;DHT22;21764;52.042;6.830;2022-08-19T15:51:22;29.30;62.80
35645;DHT22;21764;52.042;6.830;2022-08-19T15:56:22;29.40;63.00
35645;DHT22;21764;52.042;6.830;2022-08-19T16:01:23;29.50;61.80
35645;DHT22;21764;52.042;6.830;2022-08-19T16:06:54;29.50;62.50
35645;DHT22;21764;52.042;6.830;2022-08-19T16:12:00;29.40;62.90
35645;DHT22;21764;52.042;6.830;2022-08-19T16:17:01;29.10;65.20
35645;DHT22;21764;52.042;6.830;2022-08-19T16:22:03;28.90;66.10
35645;DHT22;21764;52.042;6.830;2022-08-19T16:27:05;28.50;67.40
35645;DHT22;21764;52.042;6.830;2022-08-19T16:32:09;28.10;69.30
35645;DHT22;21764;52.042;6.830;2022-08-19T16:37:11;27.80;71.10
35645;DHT22;21764;52.042;6.830;2022-08-19T16:42:12;27.50;75.10
35645;DHT22;21764;52.042;6.830;2022-08-19T16:47:13;26.90;84.10
35645;DHT22;21764;52.042;6.830;2022-08-19T16:52:17;26.60;91.30
35645;DHT22;21764;52.042;6.830;2022-08-19T16:57:18;26.20;94.50
35645;DHT22;21764;52.042;6.830;2022-08-19T17:02:20;26.00;96.90
35645;DHT22;21764;52.042;6.830;2022-08-19T17:07:22;26.00;98.60
35645;DHT22;21764;52.042;6.830;2022-08-19T17:12:24;26.00;98.40
35645;DHT22;21764;52.042;6.830;2022-08-19T17:17:25;26.10;99.10
35645;DHT22;21764;52.042;6.830;2022-08-19T17:22:27;26.00;99.60
35645;DHT22;21764;52.042;6.830;2022-08-19T17:27:28;25.90;99.90
35645;DHT22;21764;52.042;6.830;2022-08-19T17:32:30;25.90;99.90
35645;DHT22;21764;52.042;6.830;2022-08-19T17:37:35;25.70;99.90
35645;DHT22;21764;52.042;6.830;2022-08-19T17:42:36;25.60;99.90
35645;DHT22;21764;52.042;6.830;2022-08-19T17:47:37;25.30;99.90
35645;DHT22;21764;52.042;6.830;2022-08-19T17:52:39;24.90;99.90
35645;DHT22;21764;52.042;6.830;2022-08-19T17:57:39;24.70;99.90
35645;DHT22;21764;52.042;6.830;2022-08-19T18:02:49;24.50;99.90
35645;DHT22;21764;52.042;6.830;2022-08-19T18:07:51;24.20;99.90
35645;DHT22;21764;52.042;6.830;2022-08-19T18:12:52;23.90;99.90
35645;DHT22;21764;52.042;6.830;2022-08-19T18:17:53;23.60;99.90
35645;DHT22;21764;52.042;6.830;2022-08-19T18:22:55;23.50;99.90
35645;DHT22;21764;52.042;6.830;2022-08-19T18:27:58;23.40;99.90
35645;DHT22;21764;52.042;6.830;2022-08-19T18:33:02;23.30;99.90
35645;DHT22;21764;52.042;6.830;2022-08-19T18:38:03;23.20;99.90
35645;DHT22;21764;52.042;6.830;2022-08-19T18:43:23;23.10;99.90
35645;DHT22;21764;52.042;6.830;2022-08-19T18:48:27;23.00;99.90
35645;DHT22;21764;52.042;6.830;2022-08-19T18:53:47;23.00;99.90
35645;DHT22;21764;52.042;6.830;2022-08-19T18:58:48;23.10;99.90
35645;DHT22;21764;52.042;6.830;2022-08-19T19:03:51;22.90;99.90
35645;DHT22;21764;52.042;6.830;2022-08-19T19:08:53;22.90;99.90
35645;DHT22;21764;52.042;6.830;2022-08-19T19:13:54;22.80;99.90
35645;DHT22;21764;52.042;6.830;2022-08-19T19:18:55;22.80;99.90
35645;DHT22;21764;52.042;6.830;2022-08-19T19:23:56;22.70;99.90
35645;DHT22;21764;52.042;6.830;2022-08-19T19:28:56;22.70;99.90
35645;DHT22;21764;52.042;6.830;2022-08-19T19:33:57;22.60;99.90
35645;DHT22;21764;52.042;6.830;2022-08-19T19:38:58;22.50;99.90
35645;DHT22;21764;52.042;6.830;2022-08-19T19:43:59;22.40;99.90
35645;DHT22;21764;52.042;6.830;2022-08-19T19:49:00;22.30;99.90
35645;DHT22;21764;52.042;6.830;2022-08-19T19:54:01;22.30;99.90
35645;DHT22;21764;52.042;6.830;2022-08-19T19:59:02;22.30;99.90
35645;DHT22;21764;52.042;6.830;2022-08-19T20:04:03;22.30;99.90
35645;DHT22;21764;52.042;6.830;2022-08-19T20:09:04;22.20;99.90
35645;DHT22;21764;52.042;6.830;2022-08-19T20:14:22;22.20;99.90
35645;DHT22;21764;52.042;6.830;2022-08-19T20:19:26;22.20;99.90
35645;DHT22;21764;52.042;6.830;2022-08-19T20:24:29;22.30;99.90
35645;DHT22;21764;52.042;6.830;2022-08-19T20:29:34;22.40;99.90
35645;DHT22;21764;52.042;6.830;2022-08-19T20:34:35;22.30;99.90
35645;DHT22;21764;52.042;6.830;2022-08-19T20:39:36;22.30;99.90
35645;DHT22;21764;52.042;6.830;2022-08-19T20:44:37;22.30;99.90
35645;DHT22;21764;52.042;6.830;2022-08-19T20:49:38;22.20;99.90
35645;DHT22;21764;52.042;6.830;2022-08-19T20:54:38;22.30;99.90
35645;DHT22;21764;52.042;6.830;2022-08-19T20:59:39;22.20;99.90
35645;DHT22;21764;52.042;6.830;2022-08-19T21:04:40;22.00;99.90
35645;DHT22;21764;52.042;6.830;2022-08-19T21:09:41;21.80;99.90
35645;DHT22;21764;52.042;6.830;2022-08-19T21:14:42;21.70;99.90
35645;DHT22;21764;52.042;6.830;2022-08-19T21:19:43;21.60;99.90
35645;DHT22;21764;52.042;6.830;2022-08-19T21:24:43;21.60;99.90
35645;DHT22;21764;52.042;6.830;2022-08-19T21:29:44;21.70;99.90
35645;DHT22;21764;52.042;6.830;2022-08-19T21:34:45;21.80;99.90
35645;DHT22;21764;52.042;6.830;2022-08-19T21:39:46;21.90;99.90
35645;DHT22;21764;52.042;6.830;2022-08-19T21:44:47;21.90;99.90
35645;DHT22;21764;52.042;6.830;2022-08-19T21:49:48;21.90;99.90
35645;DHT22;21764;52.042;6.830;2022-08-19T21:54:48;21.70;99.90
35645;DHT22;21764;52.042;6.830;2022-08-19T21:59:50;21.70;99.90
35645;DHT22;21764;52.042;6.830;2022-08-19T22:04:52;21.90;99.90
35645;DHT22;21764;52.042;6.830;2022-08-19T22:09:53;21.90;99.90
35645;DHT22;21764;52.042;6.830;2022-08-19T22:14:55;22.00;99.90
35645;DHT22;21764;52.042;6.830;2022-08-19T22:19:56;21.90;99.90
35645;DHT22;21764;52.042;6.830;2022-08-19T22:25:07;22.00;99.90
35645;DHT22;21764;52.042;6.830;2022-08-19T22:30:10;22.10;99.90
35645;DHT22;21764;52.042;6.830;2022-08-19T22:35:11;22.00;99.90
35645;DHT22;21764;52.042;6.830;2022-08-19T22:40:13;22.10;99.90
35645;DHT22;21764;52.042;6.830;2022-08-19T22:45:16;22.00;99.90
35645;DHT22;21764;52.042;6.830;2022-08-19T22:50:17;22.00;99.90
35645;DHT22;21764;52.042;6.830;2022-08-19T22:55:18;21.90;99.90
35645;DHT22;21764;52.042;6.830;2022-08-19T23:00:20;21.90;99.90
35645;DHT22;21764;52.042;6.830;2022-08-19T23:05:24;21.80;99.90
35645;DHT22;21764;52.042;6.830;2022-08-19T23:10:25;21.80;99.90
35645;DHT22;21764;52.042;6.830;2022-08-19T23:15:30;21.80;99.90
35645;DHT22;21764;52.042;6.830;2022-08-19T23:20:33;21.80;99.90
35645;DHT22;21764;52.042;6.830;2022-08-19T23:25:36;21.80;99.90
35645;DHT22;21764;52.042;6.830;2022-08-19T23:30:40;21.70;99.90
35645;DHT22;21764;52.042;6.830;2022-08-19T23:35:41;21.60;99.90
35645;DHT22;21764;52.042;6.830;2022-08-19T23:40:42;21.50;99.90
35645;DHT22;21764;52.042;6.830;2022-08-19T23:45:44;21.50;99.90
35645;DHT22;21764;52.042;6.830;2022-08-19T23:50:45;21.40;99.90
35645;DHT22;21764;52.042;6.830;2022-08-19T23:55:46;21.50;99.90
